National Weather Service Raw Text Product

Displaying AFOS PIL: TAFOTM Received: 2018-05-17 05:20 UTC


347 
FTUS43 KDMX 170520
TAFOTM
TAF
KOTM 170520Z 1706/1806 VRB04KT P6SM FEW240
     FM171800 10006KT P6SM SKC=

347 
FTUS43 KDMX 170520
TAFOTM
TAF
KOTM 170520Z 1706/1806 VRB04KT P6SM FEW240
     FM171800 10006KT P6SM SKC=